Time;durP1;ratioP1;P1;durP2;ratioP2;P2;SDS_P1;SDS_P2;PMS_P1;PMS_P2;Temp;Humidity;BMP_temperature;BMP_pressure;BME280_temperature;BME280_humidity;BME280_pressure;Samples;Min_cycle;Max_cycle;Signal;HPM_P1;HPM_P2
2024/04/02 00:01:25;;;;;;;4.43;1.10;;;;;;;;;;5054281;28;20091;-51
2024/04/02 00:03:50;;;;;;;5.35;1.40;;;;;;;;;;5054001;28;20123;-52
2024/04/02 00:06:16;;;;;;;4.72;1.15;;;;;;;;;;5054296;28;20100;-52
2024/04/02 00:08:41;;;;;;;4.65;1.30;;;;;;;;;;5053962;28;20067;-51
2024/04/02 00:11:06;;;;;;;5.28;1.35;;;;;;;;;;5054077;28;20017;-52
2024/04/02 00:13:32;;;;;;;4.18;1.25;;;;;;;;;;5053984;28;20079;-51
2024/04/02 00:15:58;;;;;;;4.50;1.52;;;;;;;;;;5054021;28;20465;-52
2024/04/02 00:18:24;;;;;;;4.32;1.27;;;;;;;;;;5054068;28;20033;-53
2024/04/02 00:20:49;;;;;;;4.30;1.17;;;;;;;;;;5054232;28;20024;-52
2024/04/02 00:23:14;;;;;;;5.93;1.38;;;;;;;;;;5058034;28;20021;-52
2024/04/02 00:25:40;;;;;;;4.55;1.30;;;;;;;;;;5057760;28;20029;-51
2024/04/02 00:28:05;;;;;;;3.55;1.42;;;;;;;;;;5057675;28;20064;-53
2024/04/02 00:30:32;;;;;;;3.55;1.10;;;;;;;;;;5057685;28;20090;-52
2024/04/02 00:32:57;;;;;;;3.85;1.20;;;;;;;;;;5040220;28;20045;-51
2024/04/02 00:35:22;;;;;;;5.00;1.20;;;;;;;;;;5058342;28;20453;-51
2024/04/02 00:37:48;;;;;;;6.72;1.23;;;;;;;;;;5057562;28;20025;-52
2024/04/02 00:40:14;;;;;;;5.78;1.20;;;;;;;;;;5057446;28;20025;-55
2024/04/02 00:42:39;;;;;;;4.50;1.35;;;;;;;;;;5057440;28;20108;-55
2024/04/02 00:45:04;;;;;;;5.47;1.10;;;;;;;;;;5057746;28;20025;-56
2024/04/02 00:47:30;;;;;;;7.93;1.33;;;;;;;;;;5039714;28;20357;-53
2024/04/02 00:49:55;;;;;;;5.38;1.55;;;;;;;;;;5057283;28;20346;-51
2024/04/02 00:52:21;;;;;;;3.67;1.10;;;;;;;;;;5057389;28;20017;-55
2024/04/02 00:54:46;;;;;;;8.73;1.30;;;;;;;;;;5057100;28;20025;-55
2024/04/02 00:57:11;;;;;;;4.50;1.15;;;;;;;;;;5057358;28;20405;-53
2024/04/02 00:59:36;;;;;;;9.85;1.30;;;;;;;;;;5057271;28;20115;-55
2024/04/02 01:02:02;;;;;;;5.28;1.10;;;;;;;;;;5057270;28;20067;-54
2024/04/02 01:04:28;;;;;;;4.43;1.30;;;;;;;;;;5056833;28;20342;-53
2024/04/02 01:06:53;;;;;;;4.50;1.17;;;;;;;;;;5056824;28;20025;-55
2024/04/02 01:09:18;;;;;;;4.45;1.00;;;;;;;;;;5056913;28;20017;-56
2024/04/02 01:11:45;;;;;;;8.32;1.02;;;;;;;;;;5056781;28;20092;-54
2024/04/02 01:14:10;;;;;;;4.72;1.27;;;;;;;;;;5056727;28;20025;-52
2024/04/02 01:16:42;;;;;;;5.57;1.40;;;;;;;;;;5056735;28;20017;-53
2024/04/02 01:19:07;;;;;;;7.03;1.48;;;;;;;;;;5056891;28;20028;-55
2024/04/02 01:21:32;;;;;;;5.88;1.50;;;;;;;;;;5056664;28;20031;-54
2024/04/02 01:23:57;;;;;;;5.85;1.30;;;;;;;;;;5056692;28;20051;-55
2024/04/02 01:26:23;;;;;;;5.55;1.25;;;;;;;;;;5056749;28;20427;-51
2024/04/02 01:28:53;;;;;;;5.68;1.20;;;;;;;;;;5056393;28;20029;-52
2024/04/02 01:31:18;;;;;;;9.82;1.58;;;;;;;;;;5056417;28;20039;-51
2024/04/02 01:33:43;;;;;;;4.00;1.08;;;;;;;;;;5055260;28;20103;-51
2024/04/02 01:36:08;;;;;;;5.85;1.23;;;;;;;;;;5056347;28;20024;-51
2024/04/02 01:38:34;;;;;;;4.53;1.20;;;;;;;;;;5056303;28;20049;-51
2024/04/02 01:40:59;;;;;;;5.35;1.20;;;;;;;;;;5056278;28;20053;-52
2024/04/02 01:43:24;;;;;;;8.52;1.10;;;;;;;;;;5056188;28;20051;-52
2024/04/02 01:45:49;;;;;;;6.15;1.42;;;;;;;;;;5056197;28;20021;-52
2024/04/02 01:48:14;;;;;;;4.93;1.55;;;;;;;;;;5056092;28;20029;-52
2024/04/02 01:50:40;;;;;;;7.10;1.30;;;;;;;;;;5056144;28;20009;-51
2024/04/02 01:53:05;;;;;;;4.95;1.20;;;;;;;;;;5038567;28;20437;-52
2024/04/02 01:55:30;;;;;;;5.25;1.38;;;;;;;;;;5038504;28;20422;-53
2024/04/02 01:57:55;;;;;;;4.18;1.25;;;;;;;;;;5055859;28;20021;-51
2024/04/02 02:00:21;;;;;;;6.30;1.20;;;;;;;;;;5055857;28;20017;-51
2024/04/02 02:02:49;;;;;;;6.18;1.52;;;;;;;;;;5038181;28;20013;-52
2024/04/02 02:05:14;;;;;;;6.03;1.30;;;;;;;;;;5056314;28;20049;-51
2024/04/02 02:07:39;;;;;;;5.78;1.27;;;;;;;;;;5055753;28;20430;-50
2024/04/02 02:10:04;;;;;;;6.25;1.48;;;;;;;;;;5056009;28;20025;-51
2024/04/02 02:12:30;;;;;;;3.60;1.10;;;;;;;;;;5055577;28;20136;-52
2024/04/02 02:14:55;;;;;;;5.32;1.48;;;;;;;;;;5055578;28;20019;-54
2024/04/02 02:17:20;;;;;;;4.30;1.10;;;;;;;;;;5055536;28;20017;-53
2024/04/02 02:19:45;;;;;;;4.53;1.23;;;;;;;;;;5055521;28;20020;-50
2024/04/02 02:22:10;;;;;;;6.88;1.55;;;;;;;;;;5055404;28;20013;-50
2024/04/02 02:24:36;;;;;;;5.25;1.23;;;;;;;;;;5055312;28;20020;-51
2024/04/02 02:27:01;;;;;;;6.13;1.17;;;;;;;;;;5055566;28;20438;-50
2024/04/02 02:29:26;;;;;;;4.75;1.10;;;;;;;;;;5038380;28;20021;-52
2024/04/02 02:31:52;;;;;;;5.10;1.30;;;;;;;;;;5055965;28;20021;-52
2024/04/02 02:34:17;;;;;;;4.50;1.13;;;;;;;;;;5055171;28;20021;-52
2024/04/02 02:36:42;;;;;;;4.00;1.13;;;;;;;;;;5055374;28;20017;-50
2024/04/02 02:39:08;;;;;;;5.63;1.40;;;;;;;;;;5055049;28;20131;-51
2024/04/02 02:41:34;;;;;;;5.15;1.15;;;;;;;;;;5055350;28;20021;-52
2024/04/02 02:44:00;;;;;;;8.82;1.33;;;;;;;;;;5054723;28;20112;-52
2024/04/02 02:46:25;;;;;;;5.43;1.33;;;;;;;;;;5054870;28;20083;-52
2024/04/02 02:48:50;;;;;;;7.88;1.58;;;;;;;;;;5054791;28;20021;-50
2024/04/02 02:51:15;;;;;;;4.72;1.30;;;;;;;;;;5054729;28;20046;-54
2024/04/02 02:53:40;;;;;;;6.50;1.40;;;;;;;;;;5054753;28;20341;-52
2024/04/02 02:56:06;;;;;;;4.43;1.15;;;;;;;;;;5037286;28;20362;-51
2024/04/02 02:58:31;;;;;;;6.75;1.60;;;;;;;;;;5054829;28;20178;-51
2024/04/02 03:03:25;;;;;;;7.28;1.88;;;;;;;;;;4994885;28;20483;-88
2024/04/02 03:05:57;;;;;;;4.28;1.30;;;;;;;;;;4996277;28;20029;-87
2024/04/02 03:08:24;;;;;;;5.38;1.55;;;;;;;;;;4996096;28;20030;-87
2024/04/02 03:11:03;;;;;;;6.70;1.55;;;;;;;;;;4995478;28;20052;-84
2024/04/02 03:13:30;;;;;;;4.88;1.20;;;;;;;;;;4995316;28;20157;-84
2024/04/02 03:15:56;;;;;;;8.75;1.48;;;;;;;;;;4995866;28;20031;-83
2024/04/02 03:18:23;;;;;;;4.03;1.27;;;;;;;;;;4996338;28;20026;-84
2024/04/02 03:20:49;;;;;;;6.97;1.90;;;;;;;;;;4994825;28;20056;-84
2024/04/02 03:23:19;;;;;;;5.25;1.20;;;;;;;;;;4995024;28;20479;-84
2024/04/02 03:25:53;;;;;;;7.30;1.65;;;;;;;;;;4995133;28;20109;-84
2024/04/02 03:28:19;;;;;;;6.75;1.75;;;;;;;;;;4994704;28;20036;-84
2024/04/02 03:30:46;;;;;;;7.00;1.30;;;;;;;;;;4994908;28;20113;-84
2024/04/02 03:33:12;;;;;;;6.43;1.25;;;;;;;;;;4995092;28;20026;-84
2024/04/02 03:35:37;;;;;;;5.93;1.48;;;;;;;;;;4995134;28;20092;-84
2024/04/02 03:38:04;;;;;;;6.60;1.40;;;;;;;;;;4996168;28;20440;-85
2024/04/02 03:40:40;;;;;;;6.00;1.58;;;;;;;;;;4994874;28;20096;-86
2024/04/02 03:43:07;;;;;;;4.57;1.10;;;;;;;;;;4995840;28;20045;-84
2024/04/02 03:45:42;;;;;;;3.88;1.20;;;;;;;;;;4995065;28;20084;-88
2024/04/02 03:48:08;;;;;;;6.20;1.33;;;;;;;;;;4995233;28;20029;-88
2024/04/02 03:50:35;;;;;;;5.28;1.60;;;;;;;;;;4994995;28;20341;-84
2024/04/02 03:53:02;;;;;;;4.85;1.20;;;;;;;;;;4994746;28;20112;-84
2024/04/02 03:55:37;;;;;;;4.07;1.27;;;;;;;;;;4995661;28;20027;-84
2024/04/02 03:58:05;;;;;;;4.30;1.20;;;;;;;;;;4998784;28;20026;-84
2024/04/02 04:00:32;;;;;;;4.70;1.23;;;;;;;;;;4999346;28;20049;-84
2024/04/02 04:02:57;;;;;;;8.13;1.55;;;;;;;;;;5013154;23;20058;-57
2024/04/02 04:05:23;;;;;;;6.05;1.40;;;;;;;;;;4998796;28;20215;-56
2024/04/02 04:07:48;;;;;;;5.97;1.27;;;;;;;;;;4998905;28;20344;-54
2024/04/02 04:10:13;;;;;;;4.95;1.40;;;;;;;;;;4999055;28;20026;-54
2024/04/02 04:12:38;;;;;;;7.65;1.42;;;;;;;;;;4998972;28;20022;-54
2024/04/02 04:15:04;;;;;;;8.13;1.98;;;;;;;;;;4998912;28;20459;-54
2024/04/02 04:17:29;;;;;;;6.80;1.40;;;;;;;;;;4998912;28;20022;-53
2024/04/02 04:19:54;;;;;;;6.07;1.65;;;;;;;;;;4998852;28;20026;-53
2024/04/02 04:22:19;;;;;;;7.38;1.67;;;;;;;;;;4998856;28;20109;-56
2024/04/02 04:24:44;;;;;;;5.35;1.60;;;;;;;;;;4998905;28;20050;-54
2024/04/02 04:27:10;;;;;;;6.90;1.60;;;;;;;;;;4998790;28;20061;-54
2024/04/02 04:29:35;;;;;;;5.00;1.25;;;;;;;;;;4998733;28;20026;-56
2024/04/02 04:32:01;;;;;;;7.38;1.67;;;;;;;;;;4998610;28;20436;-54
2024/04/02 04:34:26;;;;;;;4.78;1.70;;;;;;;;;;4998552;28;20447;-56
2024/04/02 04:36:51;;;;;;;8.80;1.90;;;;;;;;;;4997662;28;20034;-53
2024/04/02 04:39:16;;;;;;;7.55;1.70;;;;;;;;;;4998815;28;20045;-56
2024/04/02 04:41:41;;;;;;;7.15;1.77;;;;;;;;;;4998739;28;20022;-54
2024/04/02 04:44:07;;;;;;;6.40;1.30;;;;;;;;;;4998400;28;20421;-53
2024/04/02 04:46:32;;;;;;;5.93;1.58;;;;;;;;;;4998472;28;20022;-54
2024/04/02 04:48:58;;;;;;;6.78;1.83;;;;;;;;;;4998296;28;20026;-53
2024/04/02 04:51:23;;;;;;;5.55;1.73;;;;;;;;;;4998252;28;20018;-54
2024/04/02 04:53:48;;;;;;;8.02;1.65;;;;;;;;;;4997368;28;20022;-55
2024/04/02 04:56:13;;;;;;;7.68;1.80;;;;;;;;;;4997228;28;20046;-54
2024/04/02 04:58:39;;;;;;;4.40;1.50;;;;;;;;;;4998222;28;20018;-53
2024/04/02 05:01:04;;;;;;;8.35;1.60;;;;;;;;;;4997799;28;20014;-56
2024/04/02 05:03:30;;;;;;;7.38;1.50;;;;;;;;;;4998106;28;20057;-55
2024/04/02 05:06:05;;;;;;;5.18;1.48;;;;;;;;;;4997717;28;20010;-56
2024/04/02 05:08:31;;;;;;;4.78;1.42;;;;;;;;;;4997011;28;20382;-57
2024/04/02 05:10:56;;;;;;;6.93;1.80;;;;;;;;;;4997964;28;20033;-57
2024/04/02 05:13:21;;;;;;;8.23;1.63;;;;;;;;;;4997538;28;20014;-54
2024/04/02 05:15:47;;;;;;;6.78;2.50;;;;;;;;;;4997351;28;20336;-55
2024/04/02 05:18:12;;;;;;;6.03;1.58;;;;;;;;;;4997814;28;20474;-55
2024/04/02 05:20:37;;;;;;;9.00;1.98;;;;;;;;;;4998097;28;20133;-55
2024/04/02 05:23:04;;;;;;;7.38;1.70;;;;;;;;;;4996500;28;20394;-53
2024/04/02 05:25:29;;;;;;;5.13;1.60;;;;;;;;;;4997718;28;20100;-57
2024/04/02 05:27:54;;;;;;;9.45;1.80;;;;;;;;;;4997654;28;20097;-55
2024/04/02 05:30:20;;;;;;;7.78;1.90;;;;;;;;;;4997451;28;20061;-52
2024/04/02 05:32:45;;;;;;;7.82;1.67;;;;;;;;;;4997572;28;20037;-57
2024/04/02 05:35:10;;;;;;;6.18;1.70;;;;;;;;;;4997362;28;20062;-52
2024/04/02 05:37:36;;;;;;;8.32;1.80;;;;;;;;;;4996534;28;20444;-56
2024/04/02 05:40:04;;;;;;;10.77;2.38;;;;;;;;;;4997333;28;20054;-55
2024/04/02 05:42:29;;;;;;;7.75;1.83;;;;;;;;;;4997467;28;20014;-54
2024/04/02 05:44:54;;;;;;;8.15;1.73;;;;;;;;;;4997297;28;20025;-52
2024/04/02 05:47:21;;;;;;;8.60;1.83;;;;;;;;;;4997396;28;20355;-57
2024/04/02 05:49:46;;;;;;;9.05;1.75;;;;;;;;;;4996822;28;20054;-53
2024/04/02 05:52:11;;;;;;;11.00;2.08;;;;;;;;;;4997263;28;20061;-53
2024/04/02 05:54:36;;;;;;;9.00;1.75;;;;;;;;;;4997075;28;20030;-52
2024/04/02 05:57:02;;;;;;;6.85;1.75;;;;;;;;;;4996907;28;20534;-53
2024/04/02 05:59:27;;;;;;;9.82;2.17;;;;;;;;;;4996578;28;20052;-53
2024/04/02 06:01:52;;;;;;;9.25;1.60;;;;;;;;;;4997053;28;20368;-53
2024/04/02 06:04:17;;;;;;;9.45;2.00;;;;;;;;;;4997057;28;20031;-52
2024/04/02 06:06:43;;;;;;;7.68;1.90;;;;;;;;;;4997232;28;20034;-53
2024/04/02 06:09:08;;;;;;;10.82;2.40;;;;;;;;;;4996610;28;20038;-53
2024/04/02 06:11:33;;;;;;;9.73;2.15;;;;;;;;;;4997155;28;20022;-53
2024/04/02 06:13:58;;;;;;;10.13;2.28;;;;;;;;;;4996887;28;20375;-53
2024/04/02 06:16:24;;;;;;;8.68;2.08;;;;;;;;;;4996555;28;20018;-54
2024/04/02 06:18:49;;;;;;;16.95;2.47;;;;;;;;;;4995904;28;20053;-55
2024/04/02 06:21:15;;;;;;;8.80;2.08;;;;;;;;;;4996837;28;20092;-55
2024/04/02 06:23:40;;;;;;;9.40;2.00;;;;;;;;;;4996545;28;20090;-55
2024/04/02 06:26:05;;;;;;;14.93;2.30;;;;;;;;;;4996432;28;20022;-53
2024/04/02 06:28:31;;;;;;;8.32;2.22;;;;;;;;;;4996466;28;20093;-56
2024/04/02 06:30:56;;;;;;;9.30;2.17;;;;;;;;;;4996474;28;20384;-54
2024/04/02 06:33:21;;;;;;;10.15;2.00;;;;;;;;;;4996414;28;20448;-53
2024/04/02 06:35:47;;;;;;;12.00;2.17;;;;;;;;;;4996517;28;20023;-53
2024/04/02 06:38:12;;;;;;;10.68;2.33;;;;;;;;;;4996057;28;20026;-52
2024/04/02 06:40:37;;;;;;;12.73;2.25;;;;;;;;;;4996362;28;20045;-52
2024/04/02 06:43:03;;;;;;;9.93;2.10;;;;;;;;;;4996277;28;20029;-53
2024/04/02 06:45:28;;;;;;;12.45;2.40;;;;;;;;;;4995946;28;20365;-54
2024/04/02 06:47:53;;;;;;;9.93;2.40;;;;;;;;;;4996425;28;20031;-53
2024/04/02 06:50:18;;;;;;;12.30;2.42;;;;;;;;;;4995812;28;20018;-54
2024/04/02 06:52:44;;;;;;;10.43;2.20;;;;;;;;;;4995915;28;20022;-54
2024/04/02 06:55:09;;;;;;;8.65;2.10;;;;;;;;;;4996435;28;20026;-53
2024/04/02 06:57:34;;;;;;;11.43;2.65;;;;;;;;;;4994926;28;20014;-53
2024/04/02 06:59:59;;;;;;;11.82;2.50;;;;;;;;;;4995771;28;20110;-54
2024/04/02 07:02:26;;;;;;;11.55;2.25;;;;;;;;;;4995696;28;20045;-53
2024/04/02 07:04:51;;;;;;;11.75;2.38;;;;;;;;;;4995696;28;20056;-54
2024/04/02 07:07:17;;;;;;;15.05;2.95;;;;;;;;;;4995789;28;20030;-53
2024/04/02 07:09:42;;;;;;;11.93;2.40;;;;;;;;;;4995674;28;20055;-53
2024/04/02 07:12:08;;;;;;;12.85;2.20;;;;;;;;;;4995618;28;20022;-55
2024/04/02 07:14:33;;;;;;;10.93;2.90;;;;;;;;;;4995357;28;20023;-54
2024/04/02 07:16:58;;;;;;;12.23;2.33;;;;;;;;;;4995621;28;20014;-53
2024/04/02 07:19:23;;;;;;;9.15;2.13;;;;;;;;;;4995979;28;20037;-53
2024/04/02 07:21:49;;;;;;;12.98;1.98;;;;;;;;;;4995690;28;20427;-54
2024/04/02 07:24:14;;;;;;;12.60;2.65;;;;;;;;;;4995501;28;20042;-52
2024/04/02 07:26:39;;;;;;;16.00;2.47;;;;;;;;;;4995633;28;20030;-53
2024/04/02 07:29:04;;;;;;;12.52;2.10;;;;;;;;;;4995387;28;20164;-55
2024/04/02 07:31:29;;;;;;;11.68;2.42;;;;;;;;;;4995460;28;20081;-52
2024/04/02 07:33:55;;;;;;;12.82;2.90;;;;;;;;;;4995552;28;20128;-53
2024/04/02 07:36:20;;;;;;;13.10;2.85;;;;;;;;;;4995548;28;20062;-54
2024/04/02 07:38:45;;;;;;;12.48;2.83;;;;;;;;;;4995424;28;20096;-56
2024/04/02 07:41:10;;;;;;;10.38;2.60;;;;;;;;;;4995260;28;20409;-53
2024/04/02 07:43:36;;;;;;;15.93;2.78;;;;;;;;;;4996394;28;20452;-55
2024/04/02 07:46:01;;;;;;;11.93;2.28;;;;;;;;;;4997781;28;20116;-56
2024/04/02 07:48:26;;;;;;;10.82;2.45;;;;;;;;;;4995583;28;20064;-56
2024/04/02 07:50:51;;;;;;;12.05;2.97;;;;;;;;;;4995303;28;20018;-52
2024/04/02 07:53:16;;;;;;;14.35;2.72;;;;;;;;;;4994383;28;20084;-55
2024/04/02 07:55:42;;;;;;;13.30;2.70;;;;;;;;;;4994209;28;20054;-53
2024/04/02 07:58:07;;;;;;;10.85;2.38;;;;;;;;;;4994730;28;20018;-57
2024/04/02 08:00:33;;;;;;;12.32;2.15;;;;;;;;;;4994891;28;20029;-56
2024/04/02 08:02:58;;;;;;;13.00;2.85;;;;;;;;;;4994717;28;20459;-53
2024/04/02 08:05:25;;;;;;;13.77;2.90;;;;;;;;;;4995054;28;20410;-53
2024/04/02 08:07:50;;;;;;;12.05;2.65;;;;;;;;;;4995774;28;20440;-54
2024/04/02 08:10:16;;;;;;;12.27;2.35;;;;;;;;;;5013716;28;20072;-53
2024/04/02 08:12:41;;;;;;;12.75;3.03;;;;;;;;;;5012291;28;20025;-52
2024/04/02 08:15:07;;;;;;;12.75;3.33;;;;;;;;;;4995032;28;20083;-57
2024/04/02 08:17:32;;;;;;;9.13;2.00;;;;;;;;;;4995123;28;20066;-54
2024/04/02 08:19:57;;;;;;;11.43;2.60;;;;;;;;;;4995085;28;20022;-56
2024/04/02 08:22:22;;;;;;;16.60;2.63;;;;;;;;;;4994899;28;20027;-53
2024/04/02 08:24:48;;;;;;;10.80;2.83;;;;;;;;;;4994896;28;20022;-57
2024/04/02 08:27:14;;;;;;;12.07;2.72;;;;;;;;;;4995050;28;20038;-55
2024/04/02 08:29:39;;;;;;;12.00;3.00;;;;;;;;;;4994058;28;20033;-56
2024/04/02 08:32:04;;;;;;;16.20;2.92;;;;;;;;;;4994878;28;20026;-56
2024/04/02 08:34:29;;;;;;;8.90;2.80;;;;;;;;;;4994183;28;20072;-56
2024/04/02 08:36:55;;;;;;;11.75;2.50;;;;;;;;;;4994913;28;20459;-57
2024/04/02 08:39:20;;;;;;;11.32;2.53;;;;;;;;;;4995094;28;20089;-57
2024/04/02 08:41:45;;;;;;;13.13;2.40;;;;;;;;;;4994779;28;20510;-57
2024/04/02 08:44:11;;;;;;;8.70;2.00;;;;;;;;;;4998296;28;20045;-55
2024/04/02 08:46:36;;;;;;;11.45;2.20;;;;;;;;;;4998796;28;20068;-57
2024/04/02 08:49:02;;;;;;;11.20;2.55;;;;;;;;;;4997666;28;20033;-55
2024/04/02 08:51:27;;;;;;;11.50;2.60;;;;;;;;;;4998366;28;20365;-53
2024/04/02 08:53:53;;;;;;;10.43;2.22;;;;;;;;;;4997953;28;20010;-56
2024/04/02 08:56:18;;;;;;;14.02;2.80;;;;;;;;;;4997974;28;20037;-57
2024/04/02 08:58:45;;;;;;;10.63;2.70;;;;;;;;;;4998138;28;20041;-56
2024/04/02 09:01:14;;;;;;;11.43;2.80;;;;;;;;;;4997151;28;20037;-55
2024/04/02 09:03:39;;;;;;;12.32;2.83;;;;;;;;;;4997855;28;20037;-53
2024/04/02 09:06:05;;;;;;;10.35;2.13;;;;;;;;;;4998261;28;20031;-58
2024/04/02 09:08:30;;;;;;;12.55;2.95;;;;;;;;;;4997821;28;20431;-53
2024/04/02 09:10:55;;;;;;;10.73;2.53;;;;;;;;;;4997720;28;20029;-54
2024/04/02 09:13:21;;;;;;;13.27;2.65;;;;;;;;;;4997921;28;20022;-53
2024/04/02 09:15:49;;;;;;;12.27;2.38;;;;;;;;;;4997933;28;20081;-56
2024/04/02 09:18:14;;;;;;;13.40;2.58;;;;;;;;;;4997883;28;20030;-54
2024/04/02 09:20:40;;;;;;;13.02;2.83;;;;;;;;;;4997491;28;20018;-54
2024/04/02 09:23:05;;;;;;;7.82;2.05;;;;;;;;;;4997795;28;20022;-56
2024/04/02 09:25:30;;;;;;;9.48;2.45;;;;;;;;;;4997756;28;20038;-54
2024/04/02 09:27:55;;;;;;;12.43;2.38;;;;;;;;;;4998258;28;20046;-56
2024/04/02 09:30:23;;;;;;;13.60;2.17;;;;;;;;;;4997565;28;20109;-56
2024/04/02 09:32:49;;;;;;;14.07;2.33;;;;;;;;;;4997879;28;20444;-58
2024/04/02 09:35:19;;;;;;;11.43;2.53;;;;;;;;;;4997578;28;20022;-54
2024/04/02 09:37:49;;;;;;;11.43;2.20;;;;;;;;;;4997534;28;20022;-58
2024/04/02 09:40:15;;;;;;;8.60;1.98;;;;;;;;;;4997206;28;20034;-58
2024/04/02 09:42:40;;;;;;;11.77;2.35;;;;;;;;;;4997371;28;20029;-55
2024/04/02 09:45:08;;;;;;;7.78;1.83;;;;;;;;;;4997680;28;20415;-56
2024/04/02 09:47:34;;;;;;;12.20;2.40;;;;;;;;;;4997603;28;20029;-59
2024/04/02 09:49:59;;;;;;;8.40;2.15;;;;;;;;;;4996733;28;20097;-55
2024/04/02 09:52:25;;;;;;;9.57;2.20;;;;;;;;;;4996109;28;20022;-55
2024/04/02 09:54:50;;;;;;;9.35;1.92;;;;;;;;;;4995880;28;20018;-57
2024/04/02 09:57:18;;;;;;;8.50;1.90;;;;;;;;;;4996086;28;20029;-58
2024/04/02 09:59:43;;;;;;;7.07;1.60;;;;;;;;;;4996921;28;20085;-54
2024/04/02 10:02:13;;;;;;;8.80;1.80;;;;;;;;;;4996790;28;20034;-57
2024/04/02 10:04:39;;;;;;;8.13;1.88;;;;;;;;;;4996783;28;20117;-57
2024/04/02 10:07:05;;;;;;;10.45;2.35;;;;;;;;;;4995944;28;20034;-58
2024/04/02 10:09:42;;;;;;;10.38;2.10;;;;;;;;;;4995925;28;20026;-55
2024/04/02 10:12:08;;;;;;;8.77;1.88;;;;;;;;;;4979052;28;20018;-57
2024/04/02 10:14:36;;;;;;;10.98;2.28;;;;;;;;;;4996773;28;20021;-57
2024/04/02 10:17:01;;;;;;;10.73;2.35;;;;;;;;;;4996769;28;20477;-58
2024/04/02 10:19:29;;;;;;;9.55;2.40;;;;;;;;;;4995736;28;20030;-59
2024/04/02 10:21:55;;;;;;;8.05;1.70;;;;;;;;;;4995459;28;20027;-57
2024/04/02 10:24:24;;;;;;;11.23;2.30;;;;;;;;;;4996607;28;20027;-56
2024/04/02 10:26:50;;;;;;;9.43;2.10;;;;;;;;;;4996493;28;20037;-58
2024/04/02 10:29:15;;;;;;;7.50;1.77;;;;;;;;;;4996671;28;20040;-58
2024/04/02 10:31:42;;;;;;;8.32;2.20;;;;;;;;;;4996340;28;20347;-56
2024/04/02 10:34:11;;;;;;;8.32;2.40;;;;;;;;;;4996095;28;20026;-58
2024/04/02 10:36:37;;;;;;;9.52;2.10;;;;;;;;;;4996287;28;20022;-59
2024/04/02 10:39:03;;;;;;;10.10;2.08;;;;;;;;;;4996419;28;20040;-55
2024/04/02 10:41:31;;;;;;;10.80;2.03;;;;;;;;;;4995981;28;20101;-58
2024/04/02 10:43:57;;;;;;;8.05;2.05;;;;;;;;;;4996084;28;20030;-57
2024/04/02 10:46:26;;;;;;;9.63;2.00;;;;;;;;;;4996252;28;20408;-57
2024/04/02 10:48:51;;;;;;;12.48;2.40;;;;;;;;;;4996137;28;20057;-56
2024/04/02 10:51:16;;;;;;;8.73;2.08;;;;;;;;;;4995895;28;20416;-56
2024/04/02 10:53:41;;;;;;;7.72;2.10;;;;;;;;;;4995816;28;20139;-58
2024/04/02 10:56:07;;;;;;;10.20;2.47;;;;;;;;;;4994773;28;20105;-57
2024/04/02 10:58:34;;;;;;;8.50;2.00;;;;;;;;;;4996007;28;20109;-59
2024/04/02 11:00:59;;;;;;;8.52;2.05;;;;;;;;;;4995880;28;20462;-58
2024/04/02 11:03:25;;;;;;;8.45;2.00;;;;;;;;;;4994259;28;20034;-56
2024/04/02 11:05:50;;;;;;;11.60;2.05;;;;;;;;;;4995662;28;20034;-56
2024/04/02 11:08:15;;;;;;;11.90;2.05;;;;;;;;;;4996096;28;20108;-56
2024/04/02 11:10:48;;;;;;;8.55;1.75;;;;;;;;;;4995797;28;20156;-56
2024/04/02 11:13:23;;;;;;;7.70;2.10;;;;;;;;;;4995319;28;20137;-55
2024/04/02 11:15:49;;;;;;;6.97;2.05;;;;;;;;;;4995637;28;20387;-53
2024/04/02 11:18:19;;;;;;;11.77;2.50;;;;;;;;;;4995758;28;20033;-57
2024/04/02 11:20:44;;;;;;;10.15;2.08;;;;;;;;;;4996044;28;20366;-55
2024/04/02 11:26:03;;;;;;;11.43;2.35;;;;;;;;;;4995785;28;20032;-57
2024/04/02 11:28:28;;;;;;;12.73;2.20;;;;;;;;;;4995255;28;20372;-57
2024/04/02 11:30:53;;;;;;;9.45;2.05;;;;;;;;;;4995572;28;20029;-57
2024/04/02 11:33:19;;;;;;;7.97;1.70;;;;;;;;;;4995595;28;20023;-55
2024/04/02 11:35:44;;;;;;;6.80;1.80;;;;;;;;;;4995312;28;20110;-57
2024/04/02 11:38:09;;;;;;;8.02;1.50;;;;;;;;;;4995248;28;20105;-58
2024/04/02 11:40:34;;;;;;;5.75;1.63;;;;;;;;;;4995329;28;20045;-57
2024/04/02 11:42:59;;;;;;;7.78;1.80;;;;;;;;;;4995636;28;20040;-54
2024/04/02 11:45:25;;;;;;;8.80;1.92;;;;;;;;;;4995147;28;20109;-55
2024/04/02 11:47:50;;;;;;;6.25;1.60;;;;;;;;;;4995609;28;20462;-57
2024/04/02 11:50:18;;;;;;;11.05;2.00;;;;;;;;;;4995290;28;20079;-56
2024/04/02 11:52:43;;;;;;;10.02;1.67;;;;;;;;;;4995261;28;20030;-57
2024/04/02 11:55:08;;;;;;;12.35;2.58;;;;;;;;;;4995208;28;20033;-58
2024/04/02 12:00:18;;;;;;;9.15;2.13;;;;;;;;;;4994991;28;20172;-56
2024/04/02 12:02:44;;;;;;;7.43;1.73;;;;;;;;;;4994527;28;20113;-57
2024/04/02 12:05:10;;;;;;;7.05;1.85;;;;;;;;;;4995041;28;20041;-57
2024/04/02 12:07:35;;;;;;;9.38;2.05;;;;;;;;;;4995201;28;20026;-56
2024/04/02 12:10:02;;;;;;;6.53;1.55;;;;;;;;;;4995095;28;20116;-57
2024/04/02 12:12:28;;;;;;;8.00;1.80;;;;;;;;;;4995142;28;20352;-57
2024/04/02 12:14:53;;;;;;;5.78;1.38;;;;;;;;;;4994671;28;20025;-58
2024/04/02 12:17:20;;;;;;;8.18;1.75;;;;;;;;;;4996482;28;20097;-58
2024/04/02 12:19:45;;;;;;;5.55;1.40;;;;;;;;;;4999288;28;20026;-54
2024/04/02 12:22:11;;;;;;;7.68;1.75;;;;;;;;;;4999210;28;20045;-56
2024/04/02 12:24:37;;;;;;;9.77;1.80;;;;;;;;;;4999161;28;20038;-58
2024/04/02 12:27:02;;;;;;;6.45;1.65;;;;;;;;;;4998934;28;20521;-56
2024/04/02 12:29:27;;;;;;;7.70;1.55;;;;;;;;;;4998959;28;20473;-56
2024/04/02 12:31:52;;;;;;;7.78;1.73;;;;;;;;;;4998652;28;20491;-58
2024/04/02 12:34:20;;;;;;;6.13;1.35;;;;;;;;;;4998688;28;20113;-53
2024/04/02 12:36:45;;;;;;;6.55;1.63;;;;;;;;;;4998247;28;20109;-57
2024/04/02 12:39:11;;;;;;;9.32;2.20;;;;;;;;;;4998641;28;20081;-57
2024/04/02 12:41:37;;;;;;;7.22;1.23;;;;;;;;;;4998636;28;20033;-58
2024/04/02 12:44:02;;;;;;;8.43;1.70;;;;;;;;;;4998548;28;20084;-57
2024/04/02 12:46:27;;;;;;;6.35;1.30;;;;;;;;;;4998375;28;20084;-58
2024/04/02 12:48:52;;;;;;;5.00;1.30;;;;;;;;;;4998432;28;20022;-58
2024/04/02 12:51:17;;;;;;;7.28;1.63;;;;;;;;;;4998443;28;20037;-56
2024/04/02 12:53:43;;;;;;;8.07;1.70;;;;;;;;;;4997403;28;20022;-55
2024/04/02 12:56:08;;;;;;;9.82;1.85;;;;;;;;;;4998078;28;20030;-58
2024/04/02 12:58:34;;;;;;;6.65;1.60;;;;;;;;;;4997988;28;20387;-58
2024/04/02 13:01:01;;;;;;;8.77;1.65;;;;;;;;;;4997753;28;20030;-59
2024/04/02 13:03:26;;;;;;;5.30;1.40;;;;;;;;;;4996638;28;20093;-59
2024/04/02 13:05:51;;;;;;;12.00;1.98;;;;;;;;;;4997991;28;20030;-57
2024/04/02 13:08:16;;;;;;;8.48;1.90;;;;;;;;;;4998018;28;20444;-57
2024/04/02 13:10:45;;;;;;;7.97;2.10;;;;;;;;;;4998290;28;20035;-58
2024/04/02 13:13:11;;;;;;;6.68;1.90;;;;;;;;;;4997996;28;20018;-57
2024/04/02 13:15:36;;;;;;;12.32;2.30;;;;;;;;;;4997332;28;20022;-56
2024/04/02 13:18:05;;;;;;;7.70;1.73;;;;;;;;;;4997953;28;20014;-57
2024/04/02 13:20:30;;;;;;;10.23;2.13;;;;;;;;;;4997612;28;20474;-57
2024/04/02 13:22:56;;;;;;;11.18;2.35;;;;;;;;;;4997821;28;20241;-57
2024/04/02 13:25:25;;;;;;;7.28;1.80;;;;;;;;;;4997544;28;20026;-57
2024/04/02 13:27:50;;;;;;;10.18;2.20;;;;;;;;;;4997476;28;20085;-58
2024/04/02 13:30:18;;;;;;;10.10;2.00;;;;;;;;;;4997700;28;20069;-57
2024/04/02 13:32:43;;;;;;;8.77;1.92;;;;;;;;;;4997680;28;20034;-58
2024/04/02 13:35:09;;;;;;;9.63;2.03;;;;;;;;;;4997519;28;20030;-58
2024/04/02 13:37:34;;;;;;;8.18;2.03;;;;;;;;;;4997278;28;20076;-57
2024/04/02 13:39:59;;;;;;;7.68;2.00;;;;;;;;;;4997352;28;20057;-58
2024/04/02 13:42:24;;;;;;;8.40;2.08;;;;;;;;;;4997476;28;20150;-58
2024/04/02 13:44:50;;;;;;;10.23;2.72;;;;;;;;;;4997424;28;20018;-58
2024/04/02 13:47:15;;;;;;;11.95;2.45;;;;;;;;;;4996336;28;20440;-56
2024/04/02 13:49:40;;;;;;;12.13;2.25;;;;;;;;;;4997326;28;20447;-56
2024/04/02 13:52:05;;;;;;;12.88;2.78;;;;;;;;;;4997374;28;20089;-57
2024/04/02 13:54:30;;;;;;;8.68;2.10;;;;;;;;;;4997354;28;20081;-54
2024/04/02 13:56:56;;;;;;;11.52;2.45;;;;;;;;;;4997224;28;20368;-57
2024/04/02 13:59:23;;;;;;;13.90;3.35;;;;;;;;;;4997078;28;20022;-57
2024/04/02 14:01:48;;;;;;;13.30;3.55;;;;;;;;;;4996491;28;20030;-55
2024/04/02 14:04:13;;;;;;;12.07;2.67;;;;;;;;;;4997106;28;20076;-55
2024/04/02 14:06:38;;;;;;;11.70;2.40;;;;;;;;;;4996817;28;20018;-56
2024/04/02 14:09:04;;;;;;;11.20;2.22;;;;;;;;;;4997504;28;20037;-53
2024/04/02 14:11:29;;;;;;;12.15;2.38;;;;;;;;;;4996609;28;20077;-56
2024/04/02 14:13:54;;;;;;;11.25;2.20;;;;;;;;;;4996901;28;20507;-54
2024/04/02 14:16:21;;;;;;;10.63;2.30;;;;;;;;;;4996855;28;20081;-55
2024/04/02 14:18:48;;;;;;;13.48;2.47;;;;;;;;;;4997097;28;20061;-57
2024/04/02 14:21:14;;;;;;;8.90;2.10;;;;;;;;;;4996578;28;20050;-53
2024/04/02 14:23:39;;;;;;;13.00;2.20;;;;;;;;;;4996576;28;20076;-55
2024/04/02 14:26:06;;;;;;;9.00;2.28;;;;;;;;;;4996420;28;20061;-54
2024/04/02 14:28:33;;;;;;;11.65;2.40;;;;;;;;;;4997389;28;20030;-55
2024/04/02 14:31:09;;;;;;;9.43;2.20;;;;;;;;;;4997025;28;20034;-57
2024/04/02 14:33:35;;;;;;;11.13;2.58;;;;;;;;;;4996623;28;20061;-54
2024/04/02 14:36:01;;;;;;;8.57;2.40;;;;;;;;;;4996412;28;20061;-58
2024/04/02 14:38:26;;;;;;;10.93;2.92;;;;;;;;;;4995244;28;20029;-58